»·PEaware :: N500SB KPSP-KMHV

N500SB :: KPSP-KMHV

FLIGHT INFORMATION

Flight Status: Arrived
Operator: Privately registered:
United States
More flights under this callsign
Pilot: Bruno O. (13284)
Aircraft: PIPER PA-46-500TP MALIBU MERIDIAN
(P46T)
More flights by this aircraft type
Origin: KPSP Palm Springs Intl
United States
Destination: KMHV Mojave
United States
More flights between these airports :: More routes between these airports
Route: CATH1 PSP V386 PMD
File this flight plan on PilotEdge
Remarks:
Altitude:
(Current/Filed)
16,000ft
Speed:
(Current/Filed)
239kts
Departed: 10-Nov-23 02:53 PM
Arrived: 10-Nov-23 03:39 PM
Distance/Time
Traveled:
110nm/0:46
Distance/Time
To Go:
Arrived

Flight Plot

Page will automatically refresh every two minutes.

Flight plan parsing failed; only flown route is shown


Map Options




Map Legend


Flown Route
Filed Route
Departure Airport
Arrival Airport
Navaid (VOR, NDB)
Fix

Horizontal Profiles

Position Reports

Time Latitude Longitude Heading Altitude Ground
Speed
10-Nov-23 14:37 33.825942 -116.508686 269 429ft 0kts
10-Nov-23 14:38 33.825942 -116.508686 269 429ft 0kts
10-Nov-23 14:39 33.825942 -116.508686 269 429ft 0kts
10-Nov-23 14:40 33.825942 -116.508686 268 429ft 0kts
10-Nov-23 14:41 33.825942 -116.508686 268 429ft 0kts
10-Nov-23 14:42 33.825942 -116.508686 268 429ft 0kts
10-Nov-23 14:43 33.825942 -116.508686 268 429ft 0kts
10-Nov-23 14:44 33.825942 -116.508686 268 429ft 0kts
10-Nov-23 14:45 33.825942 -116.508686 268 429ft 0kts
10-Nov-23 14:46 33.825941 -116.508703 266 429ft 1kts
10-Nov-23 14:47 33.825380 -116.506148 81 418ft 15kts
10-Nov-23 14:48 33.822163 -116.503020 143 410ft 13kts
10-Nov-23 14:49 33.818613 -116.499799 127 406ft 19kts
10-Nov-23 14:50 33.818523 -116.498966 89 406ft 0kts
10-Nov-23 14:51 33.818483 -116.498593 100 406ft 8kts
10-Nov-23 14:52 33.824033 -116.502652 323 408ft 87kts
10-Nov-23 14:53 33.850258 -116.526772 319 1571ft 131kts
10-Nov-23 14:54 33.878759 -116.555679 321 3231ft 138kts
10-Nov-23 14:55 33.908262 -116.561890 82 4931ft 141kts
10-Nov-23 14:56 33.897460 -116.514775 106 6575ft 149kts
10-Nov-23 14:57 33.903693 -116.473792 5 8095ft 145kts
10-Nov-23 14:58 33.942242 -116.485625 344 9776ft 144kts
10-Nov-23 14:59 33.981578 -116.497683 344 11359ft 146kts
10-Nov-23 15:00 34.021172 -116.509750 344 12940ft 147kts
10-Nov-23 15:01 34.061390 -116.522020 344 14486ft 150kts
10-Nov-23 15:02 34.102184 -116.534475 344 15898ft 152kts
10-Nov-23 15:03 34.151569 -116.549593 344 16003ft 206kts
10-Nov-23 15:04 34.209660 -116.567372 344 16013ft 220kts
10-Nov-23 15:05 34.269618 -116.586048 341 16011ft 222kts
10-Nov-23 15:06 34.328752 -116.609444 341 16014ft 224kts
10-Nov-23 15:07 34.387994 -116.632796 340 16016ft 224kts
10-Nov-23 15:08 34.446511 -116.655892 340 16025ft 224kts
10-Nov-23 15:09 34.498812 -116.694665 303 16002ft 224kts
10-Nov-23 15:10 34.511916 -116.768925 280 16008ft 229kts
10-Nov-23 15:11 34.519402 -116.845720 280 16005ft 229kts
10-Nov-23 15:12 34.526831 -116.922496 280 16006ft 229kts
10-Nov-23 15:13 34.534171 -116.999056 280 16017ft 228kts
10-Nov-23 15:14 34.541480 -117.075708 279 16037ft 229kts
10-Nov-23 15:15 34.548841 -117.152765 279 16004ft 230kts
10-Nov-23 15:16 34.556085 -117.229976 279 16016ft 230kts
10-Nov-23 15:17 34.563333 -117.307231 279 16026ft 231kts
10-Nov-23 15:18 34.570498 -117.384637 279 16024ft 231kts
10-Nov-23 15:19 34.577766 -117.462432 279 16018ft 231kts
10-Nov-23 15:20 34.584824 -117.539790 279 16009ft 231kts
10-Nov-23 15:21 34.591881 -117.617441 279 15886ft 232kts
10-Nov-23 15:22 34.598879 -117.694939 279 14621ft 229kts
10-Nov-23 15:23 34.605690 -117.771359 279 13332ft 227kts
10-Nov-23 15:24 34.612434 -117.847024 278 12011ft 223kts
10-Nov-23 15:25 34.618999 -117.921454 278 10747ft 220kts
10-Nov-23 15:26 34.625429 -117.994844 278 9464ft 217kts
10-Nov-23 15:27 34.638972 -118.064435 309 8173ft 210kts
10-Nov-23 15:28 34.686493 -118.101958 330 7486ft 205kts
10-Nov-23 15:29 34.736097 -118.136369 330 6821ft 205kts
10-Nov-23 15:30 34.785184 -118.170405 331 6127ft 203kts
10-Nov-23 15:31 34.833928 -118.199447 355 5952ft 194kts
10-Nov-23 15:32 34.877286 -118.163062 59 5459ft 204kts
10-Nov-23 15:33 34.906441 -118.104090 59 5003ft 199kts
10-Nov-23 15:34 34.941124 -118.054272 20 4907ft 200kts
10-Nov-23 15:35 34.992367 -118.071574 331 4282ft 187kts
10-Nov-23 15:36 35.025263 -118.107403 316 3421ft 121kts
10-Nov-23 15:37 35.044443 -118.130573 315 2749ft 93kts
10-Nov-23 15:38 35.057015 -118.145668 317 2747ft 39kts
10-Nov-23 15:39 35.057532 -118.151155 230 2755ft 12kts
10-Nov-23 15:40 35.057118 -118.151668 273 2756ft 0kts
10-Nov-23 15:41 35.057118 -118.151668 273 2756ft 0kts

Navigation Log

Ident Type
Flight plan parsing failed, navigation log unavailable